sensor_id;sensor_type;location;lat;lon;timestamp;P1;durP1;ratioP1;P2;durP2;ratioP2
48550;SDS011;34397;51.176;6.738;2022-12-26T00:01:00;7.78;;;4.00;;
48550;SDS011;34397;51.176;6.738;2022-12-26T00:03:37;6.68;;;3.60;;
48550;SDS011;34397;51.176;6.738;2022-12-26T00:06:11;8.55;;;3.75;;
48550;SDS011;34397;51.176;6.738;2022-12-26T00:08:43;8.43;;;3.53;;
48550;SDS011;34397;51.176;6.738;2022-12-26T00:11:16;7.27;;;4.17;;
48550;SDS011;34397;51.176;6.738;2022-12-26T00:13:53;5.65;;;3.38;;
48550;SDS011;34397;51.176;6.738;2022-12-26T00:16:26;7.00;;;3.42;;
48550;SDS011;34397;51.176;6.738;2022-12-26T00:18:58;6.97;;;3.70;;
48550;SDS011;34397;51.176;6.738;2022-12-26T00:21:30;7.20;;;4.13;;
48550;SDS011;34397;51.176;6.738;2022-12-26T00:24:02;6.82;;;3.17;;
48550;SDS011;34397;51.176;6.738;2022-12-26T00:26:35;6.65;;;3.55;;
48550;SDS011;34397;51.176;6.738;2022-12-26T00:29:08;7.47;;;3.72;;
48550;SDS011;34397;51.176;6.738;2022-12-26T00:34:11;6.22;;;3.38;;
48550;SDS011;34397;51.176;6.738;2022-12-26T00:36:43;10.73;;;3.25;;
48550;SDS011;34397;51.176;6.738;2022-12-26T00:39:15;5.25;;;2.63;;
48550;SDS011;34397;51.176;6.738;2022-12-26T00:41:47;7.75;;;3.25;;
48550;SDS011;34397;51.176;6.738;2022-12-26T00:44:20;7.53;;;3.17;;
48550;SDS011;34397;51.176;6.738;2022-12-26T00:49:24;8.43;;;2.95;;
48550;SDS011;34397;51.176;6.738;2022-12-26T00:51:56;7.78;;;3.10;;
48550;SDS011;34397;51.176;6.738;2022-12-26T00:54:28;5.75;;;2.67;;
48550;SDS011;34397;51.176;6.738;2022-12-26T00:57:00;6.03;;;2.85;;
48550;SDS011;34397;51.176;6.738;2022-12-26T00:59:33;5.43;;;2.63;;
48550;SDS011;34397;51.176;6.738;2022-12-26T01:02:05;5.95;;;3.17;;
48550;SDS011;34397;51.176;6.738;2022-12-26T01:04:57;7.63;;;3.03;;
48550;SDS011;34397;51.176;6.738;2022-12-26T01:07:31;7.57;;;2.95;;
48550;SDS011;34397;51.176;6.738;2022-12-26T01:10:04;6.63;;;2.80;;
48550;SDS011;34397;51.176;6.738;2022-12-26T01:12:38;5.95;;;2.90;;
48550;SDS011;34397;51.176;6.738;2022-12-26T01:15:11;5.55;;;2.70;;
48550;SDS011;34397;51.176;6.738;2022-12-26T01:20:14;7.45;;;3.10;;
48550;SDS011;34397;51.176;6.738;2022-12-26T01:22:46;6.97;;;3.20;;
48550;SDS011;34397;51.176;6.738;2022-12-26T01:25:18;6.35;;;2.83;;
48550;SDS011;34397;51.176;6.738;2022-12-26T01:27:50;6.80;;;3.40;;
48550;SDS011;34397;51.176;6.738;2022-12-26T01:30:23;6.50;;;2.88;;
48550;SDS011;34397;51.176;6.738;2022-12-26T01:32:55;6.55;;;2.92;;
48550;SDS011;34397;51.176;6.738;2022-12-26T01:35:27;6.78;;;3.03;;
48550;SDS011;34397;51.176;6.738;2022-12-26T01:37:59;9.05;;;3.58;;
48550;SDS011;34397;51.176;6.738;2022-12-26T01:40:31;6.72;;;3.05;;
48550;SDS011;34397;51.176;6.738;2022-12-26T01:43:02;6.05;;;3.13;;
48550;SDS011;34397;51.176;6.738;2022-12-26T01:45:42;6.38;;;3.25;;
48550;SDS011;34397;51.176;6.738;2022-12-26T01:48:19;8.35;;;3.72;;
48550;SDS011;34397;51.176;6.738;2022-12-26T01:50:57;11.20;;;3.72;;
48550;SDS011;34397;51.176;6.738;2022-12-26T01:53:33;6.97;;;3.80;;
48550;SDS011;34397;51.176;6.738;2022-12-26T01:56:10;8.63;;;3.25;;
48550;SDS011;34397;51.176;6.738;2022-12-26T01:58:46;7.15;;;3.75;;
48550;SDS011;34397;51.176;6.738;2022-12-26T02:01:25;8.38;;;3.05;;
48550;SDS011;34397;51.176;6.738;2022-12-26T02:04:02;5.93;;;3.38;;
48550;SDS011;34397;51.176;6.738;2022-12-26T02:06:55;7.03;;;3.20;;
48550;SDS011;34397;51.176;6.738;2022-12-26T02:09:27;8.03;;;3.53;;
48550;SDS011;34397;51.176;6.738;2022-12-26T02:12:00;10.50;;;3.42;;
48550;SDS011;34397;51.176;6.738;2022-12-26T02:14:35;7.03;;;3.15;;
48550;SDS011;34397;51.176;6.738;2022-12-26T02:19:42;7.63;;;3.08;;
48550;SDS011;34397;51.176;6.738;2022-12-26T02:22:31;6.95;;;3.28;;
48550;SDS011;34397;51.176;6.738;2022-12-26T02:25:37;7.72;;;3.47;;
48550;SDS011;34397;51.176;6.738;2022-12-26T02:28:56;8.32;;;3.10;;
48550;SDS011;34397;51.176;6.738;2022-12-26T02:32:09;7.50;;;3.30;;
48550;SDS011;34397;51.176;6.738;2022-12-26T02:34:49;7.43;;;3.28;;
48550;SDS011;34397;51.176;6.738;2022-12-26T02:37:35;6.15;;;3.08;;
48550;SDS011;34397;51.176;6.738;2022-12-26T02:40:33;6.22;;;2.95;;
48550;SDS011;34397;51.176;6.738;2022-12-26T02:43:20;8.05;;;3.53;;
48550;SDS011;34397;51.176;6.738;2022-12-26T02:45:58;7.68;;;3.60;;
48550;SDS011;34397;51.176;6.738;2022-12-26T02:48:58;5.05;;;2.50;;
48550;SDS011;34397;51.176;6.738;2022-12-26T02:51:45;6.60;;;3.15;;
48550;SDS011;34397;51.176;6.738;2022-12-26T02:54:45;8.75;;;3.15;;
48550;SDS011;34397;51.176;6.738;2022-12-26T02:57:44;7.22;;;2.90;;
48550;SDS011;34397;51.176;6.738;2022-12-26T03:00:38;7.10;;;2.90;;
48550;SDS011;34397;51.176;6.738;2022-12-26T03:03:32;5.30;;;2.60;;
48550;SDS011;34397;51.176;6.738;2022-12-26T03:06:26;5.28;;;2.22;;
48550;SDS011;34397;51.176;6.738;2022-12-26T03:09:20;5.88;;;2.53;;
48550;SDS011;34397;51.176;6.738;2022-12-26T03:12:21;5.20;;;2.40;;
48550;SDS011;34397;51.176;6.738;2022-12-26T03:15:20;6.45;;;2.70;;
48550;SDS011;34397;51.176;6.738;2022-12-26T03:17:56;5.30;;;2.03;;
48550;SDS011;34397;51.176;6.738;2022-12-26T03:20:33;5.18;;;2.38;;
48550;SDS011;34397;51.176;6.738;2022-12-26T03:23:08;4.32;;;2.22;;
48550;SDS011;34397;51.176;6.738;2022-12-26T03:25:44;4.63;;;2.30;;
48550;SDS011;34397;51.176;6.738;2022-12-26T03:28:40;4.95;;;2.65;;
48550;SDS011;34397;51.176;6.738;2022-12-26T03:31:13;5.15;;;2.80;;
48550;SDS011;34397;51.176;6.738;2022-12-26T03:33:45;5.70;;;3.13;;
48550;SDS011;34397;51.176;6.738;2022-12-26T03:36:34;5.13;;;2.90;;
48550;SDS011;34397;51.176;6.738;2022-12-26T03:39:19;5.78;;;3.13;;
48550;SDS011;34397;51.176;6.738;2022-12-26T03:42:27;6.32;;;3.33;;
48550;SDS011;34397;51.176;6.738;2022-12-26T03:45:27;6.55;;;3.30;;
48550;SDS011;34397;51.176;6.738;2022-12-26T03:48:26;6.97;;;3.40;;
48550;SDS011;34397;51.176;6.738;2022-12-26T03:51:21;7.10;;;3.80;;
48550;SDS011;34397;51.176;6.738;2022-12-26T03:54:21;6.72;;;3.72;;
48550;SDS011;34397;51.176;6.738;2022-12-26T03:57:19;6.20;;;3.53;;
48550;SDS011;34397;51.176;6.738;2022-12-26T04:03:04;8.73;;;3.70;;
48550;SDS011;34397;51.176;6.738;2022-12-26T04:05:58;6.35;;;3.47;;
48550;SDS011;34397;51.176;6.738;2022-12-26T04:08:53;5.82;;;3.22;;
48550;SDS011;34397;51.176;6.738;2022-12-26T04:11:49;6.68;;;3.45;;
48550;SDS011;34397;51.176;6.738;2022-12-26T04:14:43;6.40;;;3.75;;
48550;SDS011;34397;51.176;6.738;2022-12-26T04:17:39;5.75;;;3.20;;
48550;SDS011;34397;51.176;6.738;2022-12-26T04:20:34;6.28;;;3.83;;
48550;SDS011;34397;51.176;6.738;2022-12-26T04:23:14;6.40;;;3.40;;
48550;SDS011;34397;51.176;6.738;2022-12-26T04:26:11;5.93;;;3.35;;
48550;SDS011;34397;51.176;6.738;2022-12-26T04:29:09;5.95;;;3.13;;
48550;SDS011;34397;51.176;6.738;2022-12-26T04:32:00;5.78;;;3.15;;
48550;SDS011;34397;51.176;6.738;2022-12-26T04:34:58;7.22;;;3.30;;
48550;SDS011;34397;51.176;6.738;2022-12-26T04:37:53;6.05;;;3.22;;
48550;SDS011;34397;51.176;6.738;2022-12-26T04:40:46;6.15;;;3.03;;
48550;SDS011;34397;51.176;6.738;2022-12-26T04:43:41;5.97;;;3.15;;
48550;SDS011;34397;51.176;6.738;2022-12-26T04:46:33;5.85;;;3.22;;
48550;SDS011;34397;51.176;6.738;2022-12-26T04:49:09;6.53;;;3.88;;
48550;SDS011;34397;51.176;6.738;2022-12-26T04:52:01;6.75;;;3.50;;
48550;SDS011;34397;51.176;6.738;2022-12-26T04:54:37;6.60;;;3.50;;
48550;SDS011;34397;51.176;6.738;2022-12-26T04:57:09;6.85;;;3.80;;
48550;SDS011;34397;51.176;6.738;2022-12-26T04:59:41;8.52;;;4.53;;
48550;SDS011;34397;51.176;6.738;2022-12-26T05:02:14;7.10;;;3.70;;
48550;SDS011;34397;51.176;6.738;2022-12-26T05:05:04;6.03;;;3.70;;
48550;SDS011;34397;51.176;6.738;2022-12-26T05:07:56;6.70;;;3.60;;
48550;SDS011;34397;51.176;6.738;2022-12-26T05:10:46;6.53;;;3.83;;
48550;SDS011;34397;51.176;6.738;2022-12-26T05:13:18;6.55;;;3.65;;
48550;SDS011;34397;51.176;6.738;2022-12-26T05:15:49;7.60;;;4.25;;
48550;SDS011;34397;51.176;6.738;2022-12-26T05:18:36;7.57;;;3.80;;
48550;SDS011;34397;51.176;6.738;2022-12-26T05:21:31;6.38;;;3.55;;
48550;SDS011;34397;51.176;6.738;2022-12-26T05:24:21;7.32;;;3.70;;
48550;SDS011;34397;51.176;6.738;2022-12-26T05:27:11;6.80;;;3.33;;
48550;SDS011;34397;51.176;6.738;2022-12-26T05:30:03;8.00;;;4.30;;
48550;SDS011;34397;51.176;6.738;2022-12-26T05:32:37;6.53;;;3.28;;
48550;SDS011;34397;51.176;6.738;2022-12-26T05:35:27;6.90;;;3.90;;
48550;SDS011;34397;51.176;6.738;2022-12-26T05:40:31;6.40;;;3.45;;
48550;SDS011;34397;51.176;6.738;2022-12-26T05:43:03;6.43;;;3.75;;
48550;SDS011;34397;51.176;6.738;2022-12-26T05:45:35;6.70;;;3.70;;
48550;SDS011;34397;51.176;6.738;2022-12-26T05:48:07;6.88;;;3.42;;
48550;SDS011;34397;51.176;6.738;2022-12-26T05:50:40;7.70;;;3.60;;
48550;SDS011;34397;51.176;6.738;2022-12-26T05:55:43;6.90;;;3.42;;
48550;SDS011;34397;51.176;6.738;2022-12-26T05:58:15;6.25;;;3.47;;
48550;SDS011;34397;51.176;6.738;2022-12-26T06:00:47;6.63;;;3.80;;
48550;SDS011;34397;51.176;6.738;2022-12-26T06:03:19;6.68;;;3.30;;
48550;SDS011;34397;51.176;6.738;2022-12-26T06:05:52;6.35;;;3.65;;
48550;SDS011;34397;51.176;6.738;2022-12-26T06:08:27;6.03;;;3.47;;
48550;SDS011;34397;51.176;6.738;2022-12-26T06:11:01;5.88;;;3.13;;
48550;SDS011;34397;51.176;6.738;2022-12-26T06:13:35;5.00;;;3.05;;
48550;SDS011;34397;51.176;6.738;2022-12-26T06:16:07;6.55;;;3.65;;
48550;SDS011;34397;51.176;6.738;2022-12-26T06:18:41;7.10;;;3.95;;
48550;SDS011;34397;51.176;6.738;2022-12-26T06:21:16;7.28;;;3.47;;
48550;SDS011;34397;51.176;6.738;2022-12-26T06:23:49;7.50;;;3.50;;
48550;SDS011;34397;51.176;6.738;2022-12-26T06:26:21;6.70;;;3.97;;
48550;SDS011;34397;51.176;6.738;2022-12-26T06:28:53;10.35;;;3.42;;
48550;SDS011;34397;51.176;6.738;2022-12-26T06:31:24;7.53;;;4.32;;
48550;SDS011;34397;51.176;6.738;2022-12-26T06:33:56;7.45;;;3.90;;
48550;SDS011;34397;51.176;6.738;2022-12-26T06:36:31;6.00;;;3.20;;
48550;SDS011;34397;51.176;6.738;2022-12-26T06:41:35;6.03;;;2.53;;
48550;SDS011;34397;51.176;6.738;2022-12-26T06:44:07;7.95;;;3.00;;
48550;SDS011;34397;51.176;6.738;2022-12-26T06:46:40;4.82;;;2.58;;
48550;SDS011;34397;51.176;6.738;2022-12-26T06:49:12;6.25;;;2.60;;
48550;SDS011;34397;51.176;6.738;2022-12-26T06:51:45;5.18;;;2.85;;
48550;SDS011;34397;51.176;6.738;2022-12-26T06:56:49;3.42;;;1.70;;
48550;SDS011;34397;51.176;6.738;2022-12-26T06:59:20;4.15;;;2.10;;
48550;SDS011;34397;51.176;6.738;2022-12-26T07:01:52;5.75;;;1.85;;
48550;SDS011;34397;51.176;6.738;2022-12-26T07:04:24;5.18;;;1.95;;
48550;SDS011;34397;51.176;6.738;2022-12-26T07:06:57;3.80;;;1.42;;
48550;SDS011;34397;51.176;6.738;2022-12-26T07:12:01;3.42;;;1.70;;
48550;SDS011;34397;51.176;6.738;2022-12-26T07:14:33;3.53;;;1.73;;
48550;SDS011;34397;51.176;6.738;2022-12-26T07:17:07;3.50;;;1.65;;
48550;SDS011;34397;51.176;6.738;2022-12-26T07:19:40;3.15;;;1.50;;
48550;SDS011;34397;51.176;6.738;2022-12-26T07:22:13;4.43;;;1.45;;
48550;SDS011;34397;51.176;6.738;2022-12-26T07:27:16;4.80;;;1.85;;
48550;SDS011;34397;51.176;6.738;2022-12-26T07:29:48;4.40;;;1.70;;
48550;SDS011;34397;51.176;6.738;2022-12-26T07:32:20;4.50;;;1.63;;
48550;SDS011;34397;51.176;6.738;2022-12-26T07:34:52;3.85;;;1.67;;
48550;SDS011;34397;51.176;6.738;2022-12-26T07:37:25;5.07;;;1.55;;
48550;SDS011;34397;51.176;6.738;2022-12-26T07:39:57;3.85;;;1.70;;
48550;SDS011;34397;51.176;6.738;2022-12-26T07:42:29;3.20;;;1.50;;
48550;SDS011;34397;51.176;6.738;2022-12-26T07:45:00;3.03;;;1.48;;
48550;SDS011;34397;51.176;6.738;2022-12-26T07:47:33;3.35;;;1.33;;
48550;SDS011;34397;51.176;6.738;2022-12-26T07:50:05;1.92;;;1.10;;
48550;SDS011;34397;51.176;6.738;2022-12-26T07:52:39;2.58;;;1.23;;
48550;SDS011;34397;51.176;6.738;2022-12-26T07:57:42;2.13;;;0.90;;
48550;SDS011;34397;51.176;6.738;2022-12-26T08:00:15;2.45;;;1.02;;
48550;SDS011;34397;51.176;6.738;2022-12-26T08:02:48;0.73;;;0.60;;
48550;SDS011;34397;51.176;6.738;2022-12-26T08:05:22;2.72;;;0.90;;
48550;SDS011;34397;51.176;6.738;2022-12-26T08:07:55;2.75;;;0.90;;
48550;SDS011;34397;51.176;6.738;2022-12-26T08:12:58;1.38;;;0.70;;
48550;SDS011;34397;51.176;6.738;2022-12-26T08:15:30;2.22;;;0.82;;
48550;SDS011;34397;51.176;6.738;2022-12-26T08:18:02;2.10;;;0.80;;
48550;SDS011;34397;51.176;6.738;2022-12-26T08:20:35;1.45;;;0.90;;
48550;SDS011;34397;51.176;6.738;2022-12-26T08:23:08;2.03;;;0.88;;
48550;SDS011;34397;51.176;6.738;2022-12-26T08:28:12;1.67;;;0.88;;
48550;SDS011;34397;51.176;6.738;2022-12-26T08:30:43;1.40;;;0.80;;
48550;SDS011;34397;51.176;6.738;2022-12-26T08:33:15;2.50;;;0.70;;
48550;SDS011;34397;51.176;6.738;2022-12-26T08:35:47;2.83;;;0.75;;
48550;SDS011;34397;51.176;6.738;2022-12-26T08:38:20;1.17;;;0.75;;
48550;SDS011;34397;51.176;6.738;2022-12-26T08:43:25;1.63;;;0.80;;
48550;SDS011;34397;51.176;6.738;2022-12-26T08:45:58;2.15;;;0.90;;
48550;SDS011;34397;51.176;6.738;2022-12-26T08:48:31;1.83;;;0.63;;
48550;SDS011;34397;51.176;6.738;2022-12-26T08:51:04;2.47;;;0.90;;
48550;SDS011;34397;51.176;6.738;2022-12-26T08:53:39;2.38;;;1.00;;
48550;SDS011;34397;51.176;6.738;2022-12-26T08:56:13;2.30;;;1.00;;
48550;SDS011;34397;51.176;6.738;2022-12-26T08:58:47;3.38;;;0.90;;
48550;SDS011;34397;51.176;6.738;2022-12-26T09:01:19;1.67;;;0.98;;
48550;SDS011;34397;51.176;6.738;2022-12-26T09:03:53;4.35;;;1.05;;
48550;SDS011;34397;51.176;6.738;2022-12-26T09:06:27;2.15;;;0.93;;
48550;SDS011;34397;51.176;6.738;2022-12-26T09:09:03;2.10;;;0.90;;
48550;SDS011;34397;51.176;6.738;2022-12-26T09:11:37;2.10;;;0.80;;
48550;SDS011;34397;51.176;6.738;2022-12-26T09:14:10;2.50;;;1.20;;
48550;SDS011;34397;51.176;6.738;2022-12-26T09:16:43;1.80;;;0.80;;
48550;SDS011;34397;51.176;6.738;2022-12-26T09:19:15;2.75;;;1.10;;
48550;SDS011;34397;51.176;6.738;2022-12-26T09:21:48;3.40;;;1.05;;
48550;SDS011;34397;51.176;6.738;2022-12-26T09:24:44;2.55;;;1.13;;
48550;SDS011;34397;51.176;6.738;2022-12-26T09:29:47;3.38;;;0.90;;
48550;SDS011;34397;51.176;6.738;2022-12-26T09:32:19;3.17;;;1.15;;
48550;SDS011;34397;51.176;6.738;2022-12-26T09:34:51;4.10;;;1.00;;
48550;SDS011;34397;51.176;6.738;2022-12-26T09:37:23;2.47;;;1.00;;
48550;SDS011;34397;51.176;6.738;2022-12-26T09:39:56;2.65;;;0.90;;
48550;SDS011;34397;51.176;6.738;2022-12-26T09:42:29;3.00;;;1.10;;
48550;SDS011;34397;51.176;6.738;2022-12-26T09:45:10;3.53;;;0.98;;
48550;SDS011;34397;51.176;6.738;2022-12-26T09:47:49;2.30;;;0.93;;
48550;SDS011;34397;51.176;6.738;2022-12-26T09:50:30;2.53;;;1.00;;
48550;SDS011;34397;51.176;6.738;2022-12-26T09:53:05;2.40;;;0.90;;
48550;SDS011;34397;51.176;6.738;2022-12-26T09:55:45;3.47;;;1.30;;
48550;SDS011;34397;51.176;6.738;2022-12-26T09:58:23;2.25;;;0.80;;
48550;SDS011;34397;51.176;6.738;2022-12-26T10:00:59;3.50;;;1.00;;
48550;SDS011;34397;51.176;6.738;2022-12-26T10:03:39;2.80;;;1.30;;
48550;SDS011;34397;51.176;6.738;2022-12-26T10:06:13;2.58;;;1.10;;
48550;SDS011;34397;51.176;6.738;2022-12-26T10:08:57;3.30;;;0.90;;
48550;SDS011;34397;51.176;6.738;2022-12-26T10:11:48;4.07;;;1.10;;
48550;SDS011;34397;51.176;6.738;2022-12-26T10:14:37;2.17;;;0.95;;
48550;SDS011;34397;51.176;6.738;2022-12-26T10:17:18;2.38;;;1.00;;
48550;SDS011;34397;51.176;6.738;2022-12-26T10:20:06;3.53;;;1.10;;
48550;SDS011;34397;51.176;6.738;2022-12-26T10:23:04;3.05;;;1.38;;
48550;SDS011;34397;51.176;6.738;2022-12-26T10:25:55;2.95;;;1.10;;
48550;SDS011;34397;51.176;6.738;2022-12-26T10:28:38;2.75;;;1.30;;
48550;SDS011;34397;51.176;6.738;2022-12-26T10:31:15;2.72;;;1.38;;
48550;SDS011;34397;51.176;6.738;2022-12-26T10:33:53;2.20;;;1.08;;
48550;SDS011;34397;51.176;6.738;2022-12-26T10:36:32;3.13;;;1.10;;
48550;SDS011;34397;51.176;6.738;2022-12-26T10:39:12;4.47;;;1.40;;
48550;SDS011;34397;51.176;6.738;2022-12-26T10:41:50;2.38;;;1.10;;
48550;SDS011;34397;51.176;6.738;2022-12-26T10:44:25;2.92;;;1.15;;
48550;SDS011;34397;51.176;6.738;2022-12-26T10:47:11;3.63;;;0.98;;
48550;SDS011;34397;51.176;6.738;2022-12-26T10:49:56;3.20;;;1.13;;
48550;SDS011;34397;51.176;6.738;2022-12-26T10:52:30;3.03;;;1.20;;
48550;SDS011;34397;51.176;6.738;2022-12-26T10:55:05;5.20;;;1.58;;
48550;SDS011;34397;51.176;6.738;2022-12-26T10:57:45;2.75;;;1.00;;
48550;SDS011;34397;51.176;6.738;2022-12-26T11:00:23;3.72;;;1.08;;
48550;SDS011;34397;51.176;6.738;2022-12-26T11:03:00;2.70;;;1.27;;
48550;SDS011;34397;51.176;6.738;2022-12-26T11:05:36;2.80;;;1.08;;
48550;SDS011;34397;51.176;6.738;2022-12-26T11:08:14;4.80;;;1.10;;
48550;SDS011;34397;51.176;6.738;2022-12-26T11:10:59;3.95;;;1.27;;
48550;SDS011;34397;51.176;6.738;2022-12-26T11:13:36;2.38;;;1.10;;
48550;SDS011;34397;51.176;6.738;2022-12-26T11:16:11;2.60;;;1.15;;
48550;SDS011;34397;51.176;6.738;2022-12-26T11:18:45;2.53;;;0.93;;
48550;SDS011;34397;51.176;6.738;2022-12-26T11:21:20;4.22;;;1.65;;
48550;SDS011;34397;51.176;6.738;2022-12-26T11:24:09;3.58;;;1.15;;
48550;SDS011;34397;51.176;6.738;2022-12-26T11:26:48;5.78;;;1.20;;
48550;SDS011;34397;51.176;6.738;2022-12-26T11:29:20;4.32;;;1.30;;
48550;SDS011;34397;51.176;6.738;2022-12-26T11:31:55;6.78;;;1.50;;
48550;SDS011;34397;51.176;6.738;2022-12-26T11:34:32;3.03;;;1.00;;
48550;SDS011;34397;51.176;6.738;2022-12-26T11:37:18;3.13;;;1.35;;
48550;SDS011;34397;51.176;6.738;2022-12-26T11:39:56;2.35;;;0.98;;
48550;SDS011;34397;51.176;6.738;2022-12-26T11:42:30;2.72;;;0.90;;
48550;SDS011;34397;51.176;6.738;2022-12-26T11:45:02;2.23;;;1.10;;
48550;SDS011;34397;51.176;6.738;2022-12-26T11:47:43;4.25;;;1.15;;
48550;SDS011;34397;51.176;6.738;2022-12-26T11:50:16;2.97;;;1.05;;
48550;SDS011;34397;51.176;6.738;2022-12-26T11:52:51;3.13;;;1.10;;
48550;SDS011;34397;51.176;6.738;2022-12-26T11:55:36;2.10;;;0.90;;
48550;SDS011;34397;51.176;6.738;2022-12-26T11:58:14;3.40;;;1.20;;
48550;SDS011;34397;51.176;6.738;2022-12-26T12:01:06;5.13;;;1.23;;
48550;SDS011;34397;51.176;6.738;2022-12-26T12:03:48;4.70;;;1.00;;
48550;SDS011;34397;51.176;6.738;2022-12-26T12:09:14;3.50;;;1.45;;
48550;SDS011;34397;51.176;6.738;2022-12-26T12:11:54;2.92;;;1.30;;
48550;SDS011;34397;51.176;6.738;2022-12-26T12:14:37;4.40;;;1.42;;
48550;SDS011;34397;51.176;6.738;2022-12-26T12:17:28;3.35;;;1.10;;
48550;SDS011;34397;51.176;6.738;2022-12-26T12:23:16;4.43;;;1.33;;
48550;SDS011;34397;51.176;6.738;2022-12-26T12:26:21;3.63;;;1.13;;
48550;SDS011;34397;51.176;6.738;2022-12-26T12:29:12;3.28;;;1.13;;
48550;SDS011;34397;51.176;6.738;2022-12-26T12:32:07;5.32;;;1.00;;
48550;SDS011;34397;51.176;6.738;2022-12-26T12:34:52;2.30;;;0.82;;
48550;SDS011;34397;51.176;6.738;2022-12-26T12:37:49;2.47;;;1.13;;
48550;SDS011;34397;51.176;6.738;2022-12-26T12:40:42;4.25;;;1.13;;
48550;SDS011;34397;51.176;6.738;2022-12-26T12:43:23;4.80;;;1.33;;
48550;SDS011;34397;51.176;6.738;2022-12-26T12:46:04;3.05;;;0.93;;
48550;SDS011;34397;51.176;6.738;2022-12-26T12:48:58;3.85;;;1.00;;
48550;SDS011;34397;51.176;6.738;2022-12-26T12:51:45;4.80;;;1.17;;
48550;SDS011;34397;51.176;6.738;2022-12-26T12:54:40;2.50;;;1.00;;
48550;SDS011;34397;51.176;6.738;2022-12-26T12:57:42;3.22;;;0.88;;
48550;SDS011;34397;51.176;6.738;2022-12-26T13:00:21;3.08;;;1.13;;
48550;SDS011;34397;51.176;6.738;2022-12-26T13:02:57;2.85;;;0.90;;
48550;SDS011;34397;51.176;6.738;2022-12-26T13:05:41;4.03;;;1.20;;
48550;SDS011;34397;51.176;6.738;2022-12-26T13:08:19;4.93;;;1.27;;
48550;SDS011;34397;51.176;6.738;2022-12-26T13:10:58;2.58;;;1.00;;
48550;SDS011;34397;51.176;6.738;2022-12-26T13:13:36;4.15;;;1.45;;
48550;SDS011;34397;51.176;6.738;2022-12-26T13:16:14;4.13;;;1.30;;
48550;SDS011;34397;51.176;6.738;2022-12-26T13:18:50;2.72;;;1.17;;
48550;SDS011;34397;51.176;6.738;2022-12-26T13:21:27;3.67;;;1.30;;
48550;SDS011;34397;51.176;6.738;2022-12-26T13:24:03;4.75;;;1.42;;
48550;SDS011;34397;51.176;6.738;2022-12-26T13:26:56;2.28;;;1.10;;
48550;SDS011;34397;51.176;6.738;2022-12-26T13:29:34;3.45;;;1.10;;
48550;SDS011;34397;51.176;6.738;2022-12-26T13:32:13;2.67;;;1.15;;
48550;SDS011;34397;51.176;6.738;2022-12-26T13:34:51;2.67;;;1.08;;
48550;SDS011;34397;51.176;6.738;2022-12-26T13:40:28;3.47;;;1.05;;
48550;SDS011;34397;51.176;6.738;2022-12-26T13:43:06;1.65;;;0.90;;
48550;SDS011;34397;51.176;6.738;2022-12-26T13:46:07;3.20;;;0.93;;
48550;SDS011;34397;51.176;6.738;2022-12-26T13:49:30;3.55;;;1.00;;
48550;SDS011;34397;51.176;6.738;2022-12-26T13:55:27;2.60;;;1.30;;
48550;SDS011;34397;51.176;6.738;2022-12-26T13:58:12;2.58;;;0.80;;
48550;SDS011;34397;51.176;6.738;2022-12-26T14:01:20;2.75;;;1.13;;
48550;SDS011;34397;51.176;6.738;2022-12-26T14:04:10;3.40;;;0.98;;
48550;SDS011;34397;51.176;6.738;2022-12-26T14:07:02;6.20;;;1.70;;
48550;SDS011;34397;51.176;6.738;2022-12-26T14:09:52;3.40;;;1.13;;
48550;SDS011;34397;51.176;6.738;2022-12-26T14:12:37;4.65;;;1.25;;
48550;SDS011;34397;51.176;6.738;2022-12-26T14:15:27;4.57;;;1.25;;
48550;SDS011;34397;51.176;6.738;2022-12-26T14:18:16;3.40;;;1.10;;
48550;SDS011;34397;51.176;6.738;2022-12-26T14:21:22;3.88;;;1.10;;
48550;SDS011;34397;51.176;6.738;2022-12-26T14:24:16;4.88;;;1.45;;
48550;SDS011;34397;51.176;6.738;2022-12-26T14:27:15;3.97;;;1.30;;
48550;SDS011;34397;51.176;6.738;2022-12-26T14:30:03;5.57;;;1.42;;
48550;SDS011;34397;51.176;6.738;2022-12-26T14:32:57;6.03;;;1.70;;
48550;SDS011;34397;51.176;6.738;2022-12-26T14:35:56;4.10;;;1.40;;
48550;SDS011;34397;51.176;6.738;2022-12-26T14:38:41;3.72;;;1.25;;
48550;SDS011;34397;51.176;6.738;2022-12-26T14:41:20;4.35;;;1.45;;
48550;SDS011;34397;51.176;6.738;2022-12-26T14:44:15;5.15;;;1.27;;
48550;SDS011;34397;51.176;6.738;2022-12-26T14:47:11;4.85;;;1.60;;
48550;SDS011;34397;51.176;6.738;2022-12-26T14:56:05;3.83;;;1.40;;
48550;SDS011;34397;51.176;6.738;2022-12-26T14:59:18;4.90;;;1.70;;
48550;SDS011;34397;51.176;6.738;2022-12-26T15:02:00;5.22;;;1.58;;
48550;SDS011;34397;51.176;6.738;2022-12-26T15:04:50;2.78;;;1.45;;
48550;SDS011;34397;51.176;6.738;2022-12-26T15:07:40;7.97;;;2.00;;
48550;SDS011;34397;51.176;6.738;2022-12-26T15:11:04;7.13;;;1.60;;
48550;SDS011;34397;51.176;6.738;2022-12-26T15:17:35;5.95;;;1.77;;
48550;SDS011;34397;51.176;6.738;2022-12-26T15:20:26;5.28;;;1.60;;
48550;SDS011;34397;51.176;6.738;2022-12-26T15:23:34;7.43;;;1.60;;
48550;SDS011;34397;51.176;6.738;2022-12-26T15:26:46;4.93;;;1.63;;
48550;SDS011;34397;51.176;6.738;2022-12-26T15:30:04;4.97;;;1.80;;
48550;SDS011;34397;51.176;6.738;2022-12-26T15:32:50;6.35;;;2.08;;
48550;SDS011;34397;51.176;6.738;2022-12-26T15:35:31;6.45;;;2.40;;
48550;SDS011;34397;51.176;6.738;2022-12-26T15:38:11;3.97;;;1.70;;
48550;SDS011;34397;51.176;6.738;2022-12-26T15:40:52;4.38;;;1.52;;
48550;SDS011;34397;51.176;6.738;2022-12-26T15:43:53;4.20;;;1.63;;
48550;SDS011;34397;51.176;6.738;2022-12-26T15:46:43;4.93;;;1.50;;
48550;SDS011;34397;51.176;6.738;2022-12-26T15:49:28;3.47;;;1.30;;
48550;SDS011;34397;51.176;6.738;2022-12-26T15:52:14;5.55;;;1.30;;
48550;SDS011;34397;51.176;6.738;2022-12-26T15:55:02;4.32;;;1.30;;
48550;SDS011;34397;51.176;6.738;2022-12-26T15:58:08;3.90;;;1.50;;
48550;SDS011;34397;51.176;6.738;2022-12-26T16:00:55;4.35;;;1.73;;
48550;SDS011;34397;51.176;6.738;2022-12-26T16:03:29;5.07;;;1.40;;
48550;SDS011;34397;51.176;6.738;2022-12-26T16:06:13;4.03;;;1.40;;
48550;SDS011;34397;51.176;6.738;2022-12-26T16:09:10;5.88;;;1.73;;
48550;SDS011;34397;51.176;6.738;2022-12-26T16:11:56;6.13;;;1.85;;
48550;SDS011;34397;51.176;6.738;2022-12-26T16:14:31;6.82;;;1.35;;
48550;SDS011;34397;51.176;6.738;2022-12-26T16:17:09;6.38;;;1.90;;
48550;SDS011;34397;51.176;6.738;2022-12-26T16:19:50;5.30;;;1.70;;
48550;SDS011;34397;51.176;6.738;2022-12-26T16:22:25;8.07;;;1.73;;
48550;SDS011;34397;51.176;6.738;2022-12-26T16:25:16;5.38;;;2.08;;
48550;SDS011;34397;51.176;6.738;2022-12-26T16:27:52;3.38;;;1.67;;
48550;SDS011;34397;51.176;6.738;2022-12-26T16:30:35;7.03;;;1.80;;
48550;SDS011;34397;51.176;6.738;2022-12-26T16:33:10;5.35;;;1.77;;
48550;SDS011;34397;51.176;6.738;2022-12-26T16:35:44;4.75;;;1.73;;
48550;SDS011;34397;51.176;6.738;2022-12-26T16:38:18;5.22;;;1.70;;
48550;SDS011;34397;51.176;6.738;2022-12-26T16:40:55;4.88;;;1.85;;
48550;SDS011;34397;51.176;6.738;2022-12-26T16:43:29;4.35;;;1.58;;
48550;SDS011;34397;51.176;6.738;2022-12-26T16:46:04;6.00;;;1.73;;
48550;SDS011;34397;51.176;6.738;2022-12-26T16:48:41;5.97;;;1.80;;
48550;SDS011;34397;51.176;6.738;2022-12-26T16:51:31;4.82;;;2.20;;
48550;SDS011;34397;51.176;6.738;2022-12-26T16:54:14;6.10;;;2.13;;
48550;SDS011;34397;51.176;6.738;2022-12-26T16:56:52;6.15;;;1.80;;
48550;SDS011;34397;51.176;6.738;2022-12-26T16:59:39;7.32;;;2.65;;
48550;SDS011;34397;51.176;6.738;2022-12-26T17:02:20;4.85;;;2.05;;
48550;SDS011;34397;51.176;6.738;2022-12-26T17:04:58;5.00;;;1.92;;
48550;SDS011;34397;51.176;6.738;2022-12-26T17:07:33;3.17;;;1.60;;
48550;SDS011;34397;51.176;6.738;2022-12-26T17:10:15;6.40;;;1.80;;
48550;SDS011;34397;51.176;6.738;2022-12-26T17:12:49;5.20;;;2.08;;
48550;SDS011;34397;51.176;6.738;2022-12-26T17:17:57;5.30;;;1.77;;